sensor_id;sensor_type;location;lat;lon;timestamp;P1;durP1;ratioP1;P2;durP2;ratioP2
2992;SDS011;1506;48.932;9.478;2022-09-24T00:01:33;8.60;;;7.90;;
2992;SDS011;1506;48.932;9.478;2022-09-24T00:04:03;10.40;;;8.07;;
2992;SDS011;1506;48.932;9.478;2022-09-24T00:06:33;9.70;;;8.70;;
2992;SDS011;1506;48.932;9.478;2022-09-24T00:09:03;11.30;;;7.00;;
2992;SDS011;1506;48.932;9.478;2022-09-24T00:11:31;8.37;;;7.70;;
2992;SDS011;1506;48.932;9.478;2022-09-24T00:13:58;7.33;;;6.63;;
2992;SDS011;1506;48.932;9.478;2022-09-24T00:16:27;7.30;;;6.70;;
2992;SDS011;1506;48.932;9.478;2022-09-24T00:18:57;9.53;;;8.20;;
2992;SDS011;1506;48.932;9.478;2022-09-24T00:21:26;8.40;;;7.17;;
2992;SDS011;1506;48.932;9.478;2022-09-24T00:23:56;9.10;;;7.30;;
2992;SDS011;1506;48.932;9.478;2022-09-24T00:26:28;9.57;;;8.07;;
2992;SDS011;1506;48.932;9.478;2022-09-24T00:29:15;7.40;;;6.90;;
2992;SDS011;1506;48.932;9.478;2022-09-24T00:31:44;11.27;;;8.23;;
2992;SDS011;1506;48.932;9.478;2022-09-24T00:34:12;8.30;;;7.50;;
2992;SDS011;1506;48.932;9.478;2022-09-24T00:36:39;9.13;;;7.47;;
2992;SDS011;1506;48.932;9.478;2022-09-24T00:39:07;8.40;;;7.60;;
2992;SDS011;1506;48.932;9.478;2022-09-24T00:41:35;8.40;;;7.60;;
2992;SDS011;1506;48.932;9.478;2022-09-24T00:49:44;9.63;;;7.57;;
2992;SDS011;1506;48.932;9.478;2022-09-24T00:52:13;7.93;;;7.33;;
2992;SDS011;1506;48.932;9.478;2022-09-24T00:54:41;9.00;;;8.10;;
2992;SDS011;1506;48.932;9.478;2022-09-24T00:57:09;8.47;;;7.87;;
2992;SDS011;1506;48.932;9.478;2022-09-24T00:59:38;14.30;;;9.23;;
2992;SDS011;1506;48.932;9.478;2022-09-24T01:02:06;9.13;;;8.00;;
2992;SDS011;1506;48.932;9.478;2022-09-24T01:04:34;6.17;;;5.80;;
2992;SDS011;1506;48.932;9.478;2022-09-24T01:07:01;8.40;;;7.47;;
2992;SDS011;1506;48.932;9.478;2022-09-24T01:09:28;8.87;;;8.00;;
2992;SDS011;1506;48.932;9.478;2022-09-24T01:14:39;6.83;;;6.40;;
2992;SDS011;1506;48.932;9.478;2022-09-24T01:20:27;8.40;;;7.43;;
2992;SDS011;1506;48.932;9.478;2022-09-24T01:32:00;15.53;;;9.80;;
2992;SDS011;1506;48.932;9.478;2022-09-24T01:34:48;10.97;;;9.10;;
2992;SDS011;1506;48.932;9.478;2022-09-24T01:37:19;8.93;;;7.97;;
2992;SDS011;1506;48.932;9.478;2022-09-24T01:39:47;10.43;;;8.03;;
2992;SDS011;1506;48.932;9.478;2022-09-24T01:42:16;7.50;;;6.90;;
2992;SDS011;1506;48.932;9.478;2022-09-24T01:44:45;11.57;;;8.20;;
2992;SDS011;1506;48.932;9.478;2022-09-24T01:47:19;8.63;;;7.43;;
2992;SDS011;1506;48.932;9.478;2022-09-24T01:50:08;10.13;;;7.27;;
2992;SDS011;1506;48.932;9.478;2022-09-24T01:52:39;9.37;;;8.33;;
2992;SDS011;1506;48.932;9.478;2022-09-24T01:55:27;8.33;;;7.50;;
2992;SDS011;1506;48.932;9.478;2022-09-24T01:58:01;7.43;;;6.93;;
2992;SDS011;1506;48.932;9.478;2022-09-24T02:00:34;9.93;;;8.23;;
2992;SDS011;1506;48.932;9.478;2022-09-24T02:03:06;8.27;;;7.60;;
2992;SDS011;1506;48.932;9.478;2022-09-24T02:08:48;10.07;;;7.60;;
2992;SDS011;1506;48.932;9.478;2022-09-24T02:11:16;8.73;;;7.87;;
2992;SDS011;1506;48.932;9.478;2022-09-24T02:13:55;8.93;;;8.17;;
2992;SDS011;1506;48.932;9.478;2022-09-24T02:16:34;8.70;;;8.00;;
2992;SDS011;1506;48.932;9.478;2022-09-24T02:19:04;7.90;;;7.30;;
2992;SDS011;1506;48.932;9.478;2022-09-24T02:21:35;9.37;;;8.53;;
2992;SDS011;1506;48.932;9.478;2022-09-24T02:24:09;9.07;;;8.30;;
2992;SDS011;1506;48.932;9.478;2022-09-24T02:26:43;18.10;;;10.20;;
2992;SDS011;1506;48.932;9.478;2022-09-24T02:29:11;17.43;;;9.23;;
2992;SDS011;1506;48.932;9.478;2022-09-24T02:31:39;8.93;;;8.13;;
2992;SDS011;1506;48.932;9.478;2022-09-24T02:34:09;16.43;;;10.10;;
2992;SDS011;1506;48.932;9.478;2022-09-24T02:36:50;10.80;;;9.60;;
2992;SDS011;1506;48.932;9.478;2022-09-24T02:39:19;11.00;;;7.87;;
2992;SDS011;1506;48.932;9.478;2022-09-24T02:41:47;9.60;;;7.70;;
2992;SDS011;1506;48.932;9.478;2022-09-24T02:44:15;11.20;;;9.10;;
2992;SDS011;1506;48.932;9.478;2022-09-24T02:46:43;14.37;;;11.40;;
2992;SDS011;1506;48.932;9.478;2022-09-24T02:49:12;16.90;;;12.70;;
2992;SDS011;1506;48.932;9.478;2022-09-24T02:51:40;12.73;;;10.70;;
2992;SDS011;1506;48.932;9.478;2022-09-24T02:54:08;17.33;;;11.30;;
2992;SDS011;1506;48.932;9.478;2022-09-24T02:56:36;18.70;;;10.90;;
2992;SDS011;1506;48.932;9.478;2022-09-24T02:59:04;14.97;;;11.50;;
2992;SDS011;1506;48.932;9.478;2022-09-24T03:01:33;9.93;;;9.07;;
2992;SDS011;1506;48.932;9.478;2022-09-24T03:04:01;12.37;;;9.03;;
2992;SDS011;1506;48.932;9.478;2022-09-24T03:06:28;12.73;;;10.13;;
2992;SDS011;1506;48.932;9.478;2022-09-24T03:08:56;20.47;;;10.63;;
2992;SDS011;1506;48.932;9.478;2022-09-24T03:11:23;12.17;;;10.17;;
2992;SDS011;1506;48.932;9.478;2022-09-24T03:13:51;11.90;;;8.60;;
2992;SDS011;1506;48.932;9.478;2022-09-24T03:16:18;14.03;;;10.70;;
2992;SDS011;1506;48.932;9.478;2022-09-24T03:18:46;17.40;;;10.30;;
2992;SDS011;1506;48.932;9.478;2022-09-24T03:21:14;14.60;;;12.17;;
2992;SDS011;1506;48.932;9.478;2022-09-24T03:23:43;15.33;;;11.90;;
2992;SDS011;1506;48.932;9.478;2022-09-24T03:26:11;10.03;;;9.17;;
2992;SDS011;1506;48.932;9.478;2022-09-24T03:28:38;14.43;;;9.63;;
2992;SDS011;1506;48.932;9.478;2022-09-24T03:31:06;11.97;;;10.80;;
2992;SDS011;1506;48.932;9.478;2022-09-24T03:33:38;11.40;;;9.57;;
2992;SDS011;1506;48.932;9.478;2022-09-24T03:36:10;13.70;;;11.57;;
2992;SDS011;1506;48.932;9.478;2022-09-24T03:38:43;11.20;;;10.00;;
2992;SDS011;1506;48.932;9.478;2022-09-24T03:41:11;13.63;;;10.87;;
2992;SDS011;1506;48.932;9.478;2022-09-24T03:43:39;10.90;;;9.40;;
2992;SDS011;1506;48.932;9.478;2022-09-24T03:46:07;10.27;;;9.27;;
2992;SDS011;1506;48.932;9.478;2022-09-24T03:48:35;13.53;;;9.70;;
2992;SDS011;1506;48.932;9.478;2022-09-24T03:51:05;9.33;;;8.43;;
2992;SDS011;1506;48.932;9.478;2022-09-24T03:53:33;9.83;;;8.93;;
2992;SDS011;1506;48.932;9.478;2022-09-24T03:56:00;9.53;;;8.40;;
2992;SDS011;1506;48.932;9.478;2022-09-24T03:58:29;9.93;;;8.63;;
2992;SDS011;1506;48.932;9.478;2022-09-24T04:00:57;17.63;;;10.37;;
2992;SDS011;1506;48.932;9.478;2022-09-24T04:03:24;10.57;;;8.77;;
2992;SDS011;1506;48.932;9.478;2022-09-24T04:05:52;9.77;;;8.77;;
2992;SDS011;1506;48.932;9.478;2022-09-24T04:08:19;13.07;;;9.00;;
2992;SDS011;1506;48.932;9.478;2022-09-24T04:10:47;10.03;;;9.03;;
2992;SDS011;1506;48.932;9.478;2022-09-24T04:13:16;13.07;;;9.10;;
2992;SDS011;1506;48.932;9.478;2022-09-24T04:15:44;10.00;;;8.80;;
2992;SDS011;1506;48.932;9.478;2022-09-24T04:18:11;10.03;;;9.03;;
2992;SDS011;1506;48.932;9.478;2022-09-24T04:20:39;10.03;;;9.10;;
2992;SDS011;1506;48.932;9.478;2022-09-24T04:23:06;10.43;;;8.47;;
2992;SDS011;1506;48.932;9.478;2022-09-24T04:25:35;11.63;;;7.93;;
2992;SDS011;1506;48.932;9.478;2022-09-24T04:28:03;9.03;;;8.30;;
2992;SDS011;1506;48.932;9.478;2022-09-24T04:30:32;10.40;;;9.50;;
2992;SDS011;1506;48.932;9.478;2022-09-24T04:33:00;12.50;;;8.57;;
2992;SDS011;1506;48.932;9.478;2022-09-24T04:35:29;13.20;;;8.23;;
2992;SDS011;1506;48.932;9.478;2022-09-24T04:37:57;9.23;;;8.30;;
2992;SDS011;1506;48.932;9.478;2022-09-24T04:40:25;9.17;;;8.27;;
2992;SDS011;1506;48.932;9.478;2022-09-24T04:42:53;10.10;;;9.30;;
2992;SDS011;1506;48.932;9.478;2022-09-24T04:45:21;9.83;;;8.67;;
2992;SDS011;1506;48.932;9.478;2022-09-24T04:47:50;9.83;;;8.57;;
2992;SDS011;1506;48.932;9.478;2022-09-24T04:50:27;8.33;;;7.47;;
2992;SDS011;1506;48.932;9.478;2022-09-24T04:52:58;9.07;;;8.37;;
2992;SDS011;1506;48.932;9.478;2022-09-24T04:55:26;9.30;;;7.57;;
2992;SDS011;1506;48.932;9.478;2022-09-24T04:57:54;12.47;;;9.43;;
2992;SDS011;1506;48.932;9.478;2022-09-24T05:00:22;14.63;;;9.00;;
2992;SDS011;1506;48.932;9.478;2022-09-24T05:02:56;9.10;;;8.40;;
2992;SDS011;1506;48.932;9.478;2022-09-24T05:05:25;9.27;;;8.37;;
2992;SDS011;1506;48.932;9.478;2022-09-24T05:07:53;10.10;;;8.90;;
2992;SDS011;1506;48.932;9.478;2022-09-24T05:10:22;11.20;;;8.33;;
2992;SDS011;1506;48.932;9.478;2022-09-24T05:12:50;7.40;;;6.77;;
2992;SDS011;1506;48.932;9.478;2022-09-24T05:15:18;8.43;;;7.73;;
2992;SDS011;1506;48.932;9.478;2022-09-24T05:17:45;11.90;;;8.03;;
2992;SDS011;1506;48.932;9.478;2022-09-24T05:20:13;8.43;;;7.70;;
2992;SDS011;1506;48.932;9.478;2022-09-24T05:22:42;8.57;;;7.73;;
2992;SDS011;1506;48.932;9.478;2022-09-24T05:25:11;8.47;;;7.67;;
2992;SDS011;1506;48.932;9.478;2022-09-24T05:27:46;10.37;;;9.27;;
2992;SDS011;1506;48.932;9.478;2022-09-24T05:30:18;11.63;;;8.80;;
2992;SDS011;1506;48.932;9.478;2022-09-24T05:32:47;10.33;;;9.20;;
2992;SDS011;1506;48.932;9.478;2022-09-24T05:35:20;14.10;;;9.47;;
2992;SDS011;1506;48.932;9.478;2022-09-24T05:37:49;12.37;;;10.17;;
2992;SDS011;1506;48.932;9.478;2022-09-24T05:40:19;11.23;;;9.00;;
2992;SDS011;1506;48.932;9.478;2022-09-24T05:43:05;10.27;;;9.20;;
2992;SDS011;1506;48.932;9.478;2022-09-24T05:45:32;11.10;;;10.00;;
2992;SDS011;1506;48.932;9.478;2022-09-24T05:48:00;8.87;;;8.10;;
2992;SDS011;1506;48.932;9.478;2022-09-24T05:50:27;10.97;;;9.60;;
2992;SDS011;1506;48.932;9.478;2022-09-24T05:52:54;10.27;;;9.07;;
2992;SDS011;1506;48.932;9.478;2022-09-24T05:55:22;11.03;;;9.03;;
2992;SDS011;1506;48.932;9.478;2022-09-24T05:57:55;9.80;;;8.93;;
2992;SDS011;1506;48.932;9.478;2022-09-24T06:00:29;13.43;;;9.23;;
2992;SDS011;1506;48.932;9.478;2022-09-24T06:03:03;16.53;;;11.23;;
2992;SDS011;1506;48.932;9.478;2022-09-24T06:05:35;13.90;;;9.70;;
2992;SDS011;1506;48.932;9.478;2022-09-24T06:08:03;11.93;;;10.80;;
2992;SDS011;1506;48.932;9.478;2022-09-24T06:10:31;10.43;;;9.33;;
2992;SDS011;1506;48.932;9.478;2022-09-24T06:12:58;9.33;;;8.63;;
2992;SDS011;1506;48.932;9.478;2022-09-24T06:15:26;8.67;;;7.90;;
2992;SDS011;1506;48.932;9.478;2022-09-24T06:17:53;9.70;;;8.53;;
2992;SDS011;1506;48.932;9.478;2022-09-24T06:20:21;9.43;;;8.50;;
2992;SDS011;1506;48.932;9.478;2022-09-24T06:25:23;9.77;;;8.97;;
2992;SDS011;1506;48.932;9.478;2022-09-24T06:27:55;8.77;;;7.80;;
2992;SDS011;1506;48.932;9.478;2022-09-24T06:30:27;8.97;;;8.07;;
2992;SDS011;1506;48.932;9.478;2022-09-24T06:33:00;8.30;;;7.67;;
2992;SDS011;1506;48.932;9.478;2022-09-24T06:35:35;9.00;;;8.10;;
2992;SDS011;1506;48.932;9.478;2022-09-24T06:38:03;8.47;;;7.70;;
2992;SDS011;1506;48.932;9.478;2022-09-24T06:40:31;14.70;;;8.40;;
2992;SDS011;1506;48.932;9.478;2022-09-24T06:43:03;10.23;;;8.03;;
2992;SDS011;1506;48.932;9.478;2022-09-24T06:45:34;17.80;;;7.90;;
2992;SDS011;1506;48.932;9.478;2022-09-24T06:48:02;10.93;;;9.50;;
2992;SDS011;1506;48.932;9.478;2022-09-24T06:50:31;9.53;;;7.73;;
2992;SDS011;1506;48.932;9.478;2022-09-24T06:52:59;8.97;;;8.30;;
2992;SDS011;1506;48.932;9.478;2022-09-24T06:55:30;7.20;;;6.53;;
2992;SDS011;1506;48.932;9.478;2022-09-24T07:00:36;6.27;;;5.77;;
2992;SDS011;1506;48.932;9.478;2022-09-24T07:03:04;6.77;;;6.13;;
2992;SDS011;1506;48.932;9.478;2022-09-24T07:05:32;12.00;;;6.40;;
2992;SDS011;1506;48.932;9.478;2022-09-24T07:08:07;6.30;;;5.90;;
2992;SDS011;1506;48.932;9.478;2022-09-24T07:10:35;10.70;;;6.00;;
2992;SDS011;1506;48.932;9.478;2022-09-24T07:13:05;5.60;;;5.27;;
2992;SDS011;1506;48.932;9.478;2022-09-24T07:15:33;4.97;;;4.63;;
2992;SDS011;1506;48.932;9.478;2022-09-24T07:18:00;5.37;;;4.83;;
2992;SDS011;1506;48.932;9.478;2022-09-24T07:20:27;6.07;;;5.77;;
2992;SDS011;1506;48.932;9.478;2022-09-24T07:22:55;6.07;;;5.60;;
2992;SDS011;1506;48.932;9.478;2022-09-24T07:25:22;7.57;;;5.20;;
2992;SDS011;1506;48.932;9.478;2022-09-24T07:27:49;5.60;;;5.17;;
2992;SDS011;1506;48.932;9.478;2022-09-24T07:30:17;5.47;;;5.10;;
2992;SDS011;1506;48.932;9.478;2022-09-24T07:32:44;5.73;;;5.27;;
2992;SDS011;1506;48.932;9.478;2022-09-24T07:35:11;7.27;;;5.67;;
2992;SDS011;1506;48.932;9.478;2022-09-24T07:37:39;7.50;;;6.80;;
2992;SDS011;1506;48.932;9.478;2022-09-24T07:40:06;14.40;;;10.67;;
2992;SDS011;1506;48.932;9.478;2022-09-24T07:42:34;8.03;;;7.53;;
2992;SDS011;1506;48.932;9.478;2022-09-24T07:45:02;9.93;;;6.37;;
2992;SDS011;1506;48.932;9.478;2022-09-24T07:47:29;8.03;;;7.43;;
2992;SDS011;1506;48.932;9.478;2022-09-24T07:49:57;6.03;;;5.63;;
2992;SDS011;1506;48.932;9.478;2022-09-24T07:52:24;5.87;;;5.60;;
2992;SDS011;1506;48.932;9.478;2022-09-24T07:54:51;7.23;;;6.63;;
2992;SDS011;1506;48.932;9.478;2022-09-24T07:57:20;13.13;;;6.83;;
2992;SDS011;1506;48.932;9.478;2022-09-24T07:59:47;8.50;;;7.10;;
2992;SDS011;1506;48.932;9.478;2022-09-24T08:02:16;8.13;;;7.30;;
2992;SDS011;1506;48.932;9.478;2022-09-24T08:04:44;10.67;;;6.27;;
2992;SDS011;1506;48.932;9.478;2022-09-24T08:07:11;6.97;;;6.30;;
2992;SDS011;1506;48.932;9.478;2022-09-24T08:09:39;6.97;;;6.50;;
2992;SDS011;1506;48.932;9.478;2022-09-24T08:12:06;8.30;;;7.47;;
2992;SDS011;1506;48.932;9.478;2022-09-24T08:14:35;7.20;;;6.60;;
2992;SDS011;1506;48.932;9.478;2022-09-24T08:17:02;11.50;;;6.87;;
2992;SDS011;1506;48.932;9.478;2022-09-24T08:19:29;6.93;;;6.30;;
2992;SDS011;1506;48.932;9.478;2022-09-24T08:21:58;6.97;;;6.53;;
2992;SDS011;1506;48.932;9.478;2022-09-24T08:24:25;6.40;;;6.00;;
2992;SDS011;1506;48.932;9.478;2022-09-24T08:26:53;7.47;;;7.07;;
2992;SDS011;1506;48.932;9.478;2022-09-24T08:29:20;7.57;;;6.97;;
2992;SDS011;1506;48.932;9.478;2022-09-24T08:31:48;7.20;;;6.70;;
2992;SDS011;1506;48.932;9.478;2022-09-24T08:34:15;19.37;;;6.80;;
2992;SDS011;1506;48.932;9.478;2022-09-24T08:36:42;6.67;;;6.20;;
2992;SDS011;1506;48.932;9.478;2022-09-24T08:39:09;6.73;;;6.33;;
2992;SDS011;1506;48.932;9.478;2022-09-24T08:44:26;7.60;;;7.00;;
2992;SDS011;1506;48.932;9.478;2022-09-24T08:47:33;7.97;;;7.37;;
2992;SDS011;1506;48.932;9.478;2022-09-24T08:52:52;9.27;;;8.40;;
2992;SDS011;1506;48.932;9.478;2022-09-24T08:55:43;10.40;;;7.70;;
2992;SDS011;1506;48.932;9.478;2022-09-24T09:00:46;12.53;;;7.47;;
2992;SDS011;1506;48.932;9.478;2022-09-24T09:03:23;9.60;;;7.80;;
2992;SDS011;1506;48.932;9.478;2022-09-24T09:05:58;8.30;;;7.67;;
2992;SDS011;1506;48.932;9.478;2022-09-24T09:08:34;7.83;;;7.33;;
2992;SDS011;1506;48.932;9.478;2022-09-24T09:11:38;8.90;;;8.30;;
2992;SDS011;1506;48.932;9.478;2022-09-24T09:14:52;9.33;;;8.53;;
2992;SDS011;1506;48.932;9.478;2022-09-24T09:19:43;9.43;;;8.70;;
2992;SDS011;1506;48.932;9.478;2022-09-24T09:22:19;9.20;;;7.53;;
2992;SDS011;1506;48.932;9.478;2022-09-24T09:24:52;8.30;;;7.43;;
2992;SDS011;1506;48.932;9.478;2022-09-24T09:27:28;11.00;;;7.80;;
2992;SDS011;1506;48.932;9.478;2022-09-24T09:29:56;7.33;;;6.70;;
2992;SDS011;1506;48.932;9.478;2022-09-24T09:38:01;12.73;;;7.80;;
2992;SDS011;1506;48.932;9.478;2022-09-24T09:43:36;8.60;;;7.80;;
2992;SDS011;1506;48.932;9.478;2022-09-24T09:46:22;8.67;;;7.87;;
2992;SDS011;1506;48.932;9.478;2022-09-24T09:48:55;7.53;;;6.93;;
2992;SDS011;1506;48.932;9.478;2022-09-24T09:51:25;7.57;;;6.97;;
2992;SDS011;1506;48.932;9.478;2022-09-24T09:53:55;8.43;;;7.67;;
2992;SDS011;1506;48.932;9.478;2022-09-24T09:56:27;7.80;;;7.30;;
2992;SDS011;1506;48.932;9.478;2022-09-24T09:59:13;8.33;;;7.60;;
2992;SDS011;1506;48.932;9.478;2022-09-24T10:01:44;9.33;;;7.90;;
2992;SDS011;1506;48.932;9.478;2022-09-24T10:04:26;7.67;;;7.17;;
2992;SDS011;1506;48.932;9.478;2022-09-24T10:09:40;8.20;;;7.50;;
2992;SDS011;1506;48.932;9.478;2022-09-24T10:12:16;12.53;;;7.90;;
2992;SDS011;1506;48.932;9.478;2022-09-24T10:15:03;8.17;;;7.57;;
2992;SDS011;1506;48.932;9.478;2022-09-24T10:17:40;9.70;;;8.70;;
2992;SDS011;1506;48.932;9.478;2022-09-24T10:22:50;10.17;;;9.10;;
2992;SDS011;1506;48.932;9.478;2022-09-24T10:25:24;9.10;;;8.40;;
2992;SDS011;1506;48.932;9.478;2022-09-24T10:27:54;7.67;;;7.13;;
2992;SDS011;1506;48.932;9.478;2022-09-24T10:30:55;8.43;;;7.80;;
2992;SDS011;1506;48.932;9.478;2022-09-24T10:33:26;9.10;;;8.20;;
2992;SDS011;1506;48.932;9.478;2022-09-24T10:36:05;9.10;;;8.30;;
2992;SDS011;1506;48.932;9.478;2022-09-24T10:38:37;8.77;;;8.00;;
2992;SDS011;1506;48.932;9.478;2022-09-24T10:43:53;8.07;;;7.47;;
2992;SDS011;1506;48.932;9.478;2022-09-24T10:51:59;9.30;;;8.50;;
2992;SDS011;1506;48.932;9.478;2022-09-24T10:57:10;9.97;;;8.93;;
2992;SDS011;1506;48.932;9.478;2022-09-24T11:02:35;11.10;;;9.70;;
2992;SDS011;1506;48.932;9.478;2022-09-24T11:05:19;9.97;;;9.27;;
2992;SDS011;1506;48.932;9.478;2022-09-24T11:13:13;12.93;;;9.40;;
2992;SDS011;1506;48.932;9.478;2022-09-24T11:18:42;10.97;;;8.27;;
2992;SDS011;1506;48.932;9.478;2022-09-24T11:24:09;9.43;;;8.63;;
2992;SDS011;1506;48.932;9.478;2022-09-24T11:29:54;9.13;;;8.27;;
2992;SDS011;1506;48.932;9.478;2022-09-24T11:35:14;8.47;;;7.80;;
2992;SDS011;1506;48.932;9.478;2022-09-24T11:37:59;10.53;;;9.53;;
2992;SDS011;1506;48.932;9.478;2022-09-24T11:43:44;9.67;;;8.77;;
2992;SDS011;1506;48.932;9.478;2022-09-24T11:49:04;7.90;;;7.27;;
2992;SDS011;1506;48.932;9.478;2022-09-24T11:56:51;8.73;;;8.07;;
2992;SDS011;1506;48.932;9.478;2022-09-24T11:59:30;9.63;;;7.77;;
2992;SDS011;1506;48.932;9.478;2022-09-24T12:07:40;9.77;;;8.87;;
2992;SDS011;1506;48.932;9.478;2022-09-24T12:13:01;9.20;;;8.33;;
2992;SDS011;1506;48.932;9.478;2022-09-24T12:15:33;9.50;;;8.60;;
2992;SDS011;1506;48.932;9.478;2022-09-24T12:18:11;9.50;;;8.53;;
2992;SDS011;1506;48.932;9.478;2022-09-24T12:20:50;9.17;;;8.20;;
2992;SDS011;1506;48.932;9.478;2022-09-24T12:23:22;9.90;;;8.73;;
2992;SDS011;1506;48.932;9.478;2022-09-24T12:25:53;8.87;;;8.07;;
2992;SDS011;1506;48.932;9.478;2022-09-24T12:28:22;10.43;;;8.70;;
2992;SDS011;1506;48.932;9.478;2022-09-24T12:31:11;8.73;;;8.07;;
2992;SDS011;1506;48.932;9.478;2022-09-24T12:34:29;20.80;;;13.10;;
2992;SDS011;1506;48.932;9.478;2022-09-24T12:37:07;12.50;;;9.97;;
2992;SDS011;1506;48.932;9.478;2022-09-24T12:40:37;10.33;;;9.33;;
2992;SDS011;1506;48.932;9.478;2022-09-24T12:42:39;17.07;;;11.43;;
2992;SDS011;1506;48.932;9.478;2022-09-24T12:45:13;12.13;;;10.93;;
2992;SDS011;1506;48.932;9.478;2022-09-24T12:47:46;10.97;;;9.53;;
2992;SDS011;1506;48.932;9.478;2022-09-24T12:50:19;10.67;;;7.80;;
2992;SDS011;1506;48.932;9.478;2022-09-24T12:52:52;9.10;;;8.50;;
2992;SDS011;1506;48.932;9.478;2022-09-24T12:55:27;12.60;;;10.13;;
2992;SDS011;1506;48.932;9.478;2022-09-24T12:58:03;12.07;;;10.87;;
2992;SDS011;1506;48.932;9.478;2022-09-24T13:03:03;12.63;;;10.03;;
2992;SDS011;1506;48.932;9.478;2022-09-24T13:05:32;11.37;;;8.30;;
2992;SDS011;1506;48.932;9.478;2022-09-24T13:10:32;8.83;;;8.13;;
2992;SDS011;1506;48.932;9.478;2022-09-24T13:13:01;9.43;;;8.53;;
2992;SDS011;1506;48.932;9.478;2022-09-24T13:15:41;6.53;;;6.10;;
2992;SDS011;1506;48.932;9.478;2022-09-24T13:20:37;11.50;;;9.07;;
2992;SDS011;1506;48.932;9.478;2022-09-24T13:28:26;11.40;;;8.07;;
2992;SDS011;1506;48.932;9.478;2022-09-24T13:33:48;8.27;;;7.60;;
2992;SDS011;1506;48.932;9.478;2022-09-24T13:44:39;11.33;;;10.30;;
2992;SDS011;1506;48.932;9.478;2022-09-24T13:49:43;13.40;;;12.00;;
2992;SDS011;1506;48.932;9.478;2022-09-24T13:52:33;13.67;;;11.63;;
2992;SDS011;1506;48.932;9.478;2022-09-24T13:55:10;16.57;;;10.53;;
2992;SDS011;1506;48.932;9.478;2022-09-24T13:57:57;13.03;;;11.63;;
2992;SDS011;1506;48.932;9.478;2022-09-24T14:00:25;12.70;;;11.40;;
2992;SDS011;1506;48.932;9.478;2022-09-24T14:05:45;14.40;;;11.87;;
2992;SDS011;1506;48.932;9.478;2022-09-24T14:08:13;12.40;;;11.00;;
2992;SDS011;1506;48.932;9.478;2022-09-24T14:10:42;14.93;;;12.67;;
2992;SDS011;1506;48.932;9.478;2022-09-24T14:13:15;15.37;;;11.70;;
2992;SDS011;1506;48.932;9.478;2022-09-24T14:18:21;12.77;;;10.70;;
2992;SDS011;1506;48.932;9.478;2022-09-24T14:23:59;14.97;;;12.03;;
2992;SDS011;1506;48.932;9.478;2022-09-24T14:29:10;18.23;;;14.07;;
2992;SDS011;1506;48.932;9.478;2022-09-24T14:31:42;19.00;;;12.87;;
2992;SDS011;1506;48.932;9.478;2022-09-24T14:37:17;16.50;;;12.00;;
2992;SDS011;1506;48.932;9.478;2022-09-24T14:39:57;19.27;;;10.80;;
2992;SDS011;1506;48.932;9.478;2022-09-24T14:45:18;11.33;;;10.27;;
2992;SDS011;1506;48.932;9.478;2022-09-24T14:48:50;16.00;;;10.23;;
2992;SDS011;1506;48.932;9.478;2022-09-24T14:50:55;11.40;;;10.27;;
2992;SDS011;1506;48.932;9.478;2022-09-24T14:53:24;10.27;;;9.40;;
2992;SDS011;1506;48.932;9.478;2022-09-24T14:55:53;10.60;;;9.57;;
2992;SDS011;1506;48.932;9.478;2022-09-24T15:01:03;14.87;;;10.00;;
2992;SDS011;1506;48.932;9.478;2022-09-24T15:03:42;13.00;;;10.33;;
2992;SDS011;1506;48.932;9.478;2022-09-24T15:06:19;17.43;;;11.30;;
2992;SDS011;1506;48.932;9.478;2022-09-24T15:11:31;18.90;;;13.40;;
2992;SDS011;1506;48.932;9.478;2022-09-24T15:14:17;20.20;;;13.50;;
2992;SDS011;1506;48.932;9.478;2022-09-24T15:16:53;22.77;;;14.50;;
2992;SDS011;1506;48.932;9.478;2022-09-24T15:19:22;22.03;;;13.53;;
2992;SDS011;1506;48.932;9.478;2022-09-24T15:21:54;12.13;;;10.93;;
2992;SDS011;1506;48.932;9.478;2022-09-24T15:24:22;16.63;;;11.17;;
2992;SDS011;1506;48.932;9.478;2022-09-24T15:27:14;12.60;;;11.20;;
2992;SDS011;1506;48.932;9.478;2022-09-24T15:29:44;12.90;;;10.83;;
2992;SDS011;1506;48.932;9.478;2022-09-24T15:32:16;17.30;;;13.30;;
2992;SDS011;1506;48.932;9.478;2022-09-24T15:34:44;19.83;;;12.67;;
2992;SDS011;1506;48.932;9.478;2022-09-24T15:37:13;17.43;;;13.40;;
2992;SDS011;1506;48.932;9.478;2022-09-24T15:39:41;16.50;;;13.10;;
2992;SDS011;1506;48.932;9.478;2022-09-24T15:42:14;19.80;;;13.87;;
2992;SDS011;1506;48.932;9.478;2022-09-24T15:44:45;20.93;;;14.60;;
2992;SDS011;1506;48.932;9.478;2022-09-24T15:47:13;21.30;;;15.20;;
2992;SDS011;1506;48.932;9.478;2022-09-24T15:49:40;16.67;;;13.97;;
2992;SDS011;1506;48.932;9.478;2022-09-24T15:52:10;21.60;;;16.30;;
2992;SDS011;1506;48.932;9.478;2022-09-24T15:54:41;19.40;;;15.60;;
2992;SDS011;1506;48.932;9.478;2022-09-24T15:57:09;23.50;;;16.47;;
2992;SDS011;1506;48.932;9.478;2022-09-24T15:59:38;22.10;;;17.00;;
2992;SDS011;1506;48.932;9.478;2022-09-24T16:02:09;21.97;;;17.10;;
2992;SDS011;1506;48.932;9.478;2022-09-24T16:04:43;24.20;;;16.43;;
2992;SDS011;1506;48.932;9.478;2022-09-24T16:07:10;22.93;;;15.77;;
2992;SDS011;1506;48.932;9.478;2022-09-24T16:09:37;24.87;;;15.63;;
2992;SDS011;1506;48.932;9.478;2022-09-24T16:12:06;21.93;;;16.77;;
2992;SDS011;1506;48.932;9.478;2022-09-24T16:14:34;23.23;;;16.77;;
2992;SDS011;1506;48.932;9.478;2022-09-24T16:17:01;19.73;;;15.27;;
2992;SDS011;1506;48.932;9.478;2022-09-24T16:19:29;23.40;;;17.03;;
2992;SDS011;1506;48.932;9.478;2022-09-24T16:21:56;19.27;;;15.60;;
2992;SDS011;1506;48.932;9.478;2022-09-24T16:24:24;22.23;;;18.43;;
2992;SDS011;1506;48.932;9.478;2022-09-24T16:26:52;31.63;;;18.57;;
2992;SDS011;1506;48.932;9.478;2022-09-24T16:29:20;24.80;;;19.10;;
2992;SDS011;1506;48.932;9.478;2022-09-24T16:31:48;23.27;;;17.53;;
2992;SDS011;1506;48.932;9.478;2022-09-24T16:34:15;22.43;;;15.80;;
2992;SDS011;1506;48.932;9.478;2022-09-24T16:36:42;23.37;;;17.17;;
2992;SDS011;1506;48.932;9.478;2022-09-24T16:39:10;27.30;;;16.97;;
2992;SDS011;1506;48.932;9.478;2022-09-24T16:41:37;19.33;;;15.97;;
2992;SDS011;1506;48.932;9.478;2022-09-24T16:44:04;24.67;;;17.97;;
2992;SDS011;1506;48.932;9.478;2022-09-24T16:46:32;27.03;;;15.73;;
2992;SDS011;1506;48.932;9.478;2022-09-24T16:48:59;21.50;;;16.40;;
2992;SDS011;1506;48.932;9.478;2022-09-24T16:51:27;22.00;;;14.50;;
2992;SDS011;1506;48.932;9.478;2022-09-24T16:53:54;22.90;;;16.00;;
2992;SDS011;1506;48.932;9.478;2022-09-24T16:56:21;23.97;;;18.10;;
2992;SDS011;1506;48.932;9.478;2022-09-24T16:58:49;23.50;;;15.77;;
2992;SDS011;1506;48.932;9.478;2022-09-24T17:01:18;20.70;;;15.40;;
2992;SDS011;1506;48.932;9.478;2022-09-24T17:03:50;23.40;;;16.53;;
2992;SDS011;1506;48.932;9.478;2022-09-24T17:06:22;25.77;;;17.10;;
2992;SDS011;1506;48.932;9.478;2022-09-24T17:08:51;20.87;;;15.67;;
2992;SDS011;1506;48.932;9.478;2022-09-24T17:11:37;16.20;;;13.47;;
2992;SDS011;1506;48.932;9.478;2022-09-24T17:14:08;20.67;;;15.03;;
2992;SDS011;1506;48.932;9.478;2022-09-24T17:16:38;18.33;;;13.80;;
2992;SDS011;1506;48.932;9.478;2022-09-24T17:19:08;11.53;;;8.70;;
2992;SDS011;1506;48.932;9.478;2022-09-24T17:21:37;11.67;;;10.23;;
2992;SDS011;1506;48.932;9.478;2022-09-24T17:24:06;10.17;;;9.27;;
2992;SDS011;1506;48.932;9.478;2022-09-24T17:26:34;11.63;;;10.40;;
2992;SDS011;1506;48.932;9.478;2022-09-24T17:29:02;9.87;;;8.73;;
2992;SDS011;1506;48.932;9.478;2022-09-24T17:31:29;12.63;;;10.30;;
2992;SDS011;1506;48.932;9.478;2022-09-24T17:33:58;17.50;;;10.90;;
2992;SDS011;1506;48.932;9.478;2022-09-24T17:36:28;11.83;;;9.83;;
2992;SDS011;1506;48.932;9.478;2022-09-24T17:38:56;11.93;;;7.80;;
2992;SDS011;1506;48.932;9.478;2022-09-24T17:41:25;15.80;;;7.77;;
2992;SDS011;1506;48.932;9.478;2022-09-24T17:43:56;7.63;;;6.93;;
2992;SDS011;1506;48.932;9.478;2022-09-24T17:46:28;9.90;;;9.00;;
2992;SDS011;1506;48.932;9.478;2022-09-24T17:48:57;9.03;;;8.20;;
2992;SDS011;1506;48.932;9.478;2022-09-24T17:51:26;9.33;;;8.40;;
2992;SDS011;1506;48.932;9.478;2022-09-24T17:54:03;13.77;;;8.63;;
2992;SDS011;1506;48.932;9.478;2022-09-24T17:56:37;9.73;;;8.83;;
2992;SDS011;1506;48.932;9.478;2022-09-24T17:59:06;12.90;;;10.27;;
2992;SDS011;1506;48.932;9.478;2022-09-24T18:01:35;23.30;;;13.50;;